Time;durP1;ratioP1;P1;durP2;ratioP2;P2;SDS_P1;SDS_P2;PMS_P1;PMS_P2;Temp;Humidity;BMP_temperature;BMP_pressure;BME280_temperature;BME280_humidity;BME280_pressure;Samples;Min_cycle;Max_cycle;Signal;HPM_P1;HPM_P2
2021/04/02 00:00:52;;;;;;;8.30;3.90;;;;;;;5.93;59.08;99990.00;5013742;28;20034;-62
2021/04/02 00:03:25;;;;;;;9.05;3.58;;;;;;;5.94;61.93;99989.00;5014211;28;20057;-62
2021/04/02 00:05:51;;;;;;;11.18;3.92;;;;;;;5.86;59.25;99978.47;5013625;28;20076;-62
2021/04/02 00:08:16;;;;;;;10.57;3.95;;;;;;;5.81;59.44;99982.53;5014146;28;20373;-62
2021/04/02 00:10:51;;;;;;;8.48;4.15;;;;;;;5.62;60.28;99978.72;5012103;28;20049;-62
2021/04/02 00:13:22;;;;;;;14.00;4.25;;;;;;;5.59;64.97;99973.78;5012787;28;20115;-62
2021/04/02 00:15:48;;;;;;;12.13;4.28;;;;;;;5.60;60.99;99985.25;5012340;28;20053;-62
2021/04/02 00:18:14;;;;;;;10.43;4.18;;;;;;;5.56;61.27;99984.78;5013807;28;20022;-62
2021/04/02 00:20:39;;;;;;;12.98;4.03;;;;;;;5.49;61.89;99985.75;5013280;28;20457;-62
2021/04/02 00:23:05;;;;;;;10.05;3.90;;;;;;;5.33;62.28;99990.31;5013661;28;20030;-62
2021/04/02 00:25:31;;;;;;;10.77;3.90;;;;;;;5.43;64.26;99991.84;5011683;28;20065;-62
2021/04/02 00:27:56;;;;;;;12.57;4.72;;;;;;;5.30;63.73;99989.88;5013728;28;20042;-62
2021/04/02 00:30:26;;;;;;;12.32;4.35;;;;;;;5.14;64.07;99982.94;5012064;28;20141;-62
2021/04/02 00:32:52;;;;;;;16.33;4.90;;;;;;;5.15;64.65;99987.28;5013709;28;20428;-62
2021/04/02 00:35:17;;;;;;;11.93;4.55;;;;;;;5.09;64.86;99993.31;5013027;28;20315;-62
2021/04/02 00:37:42;;;;;;;10.02;4.10;;;;;;;5.04;65.33;99985.09;5012294;28;20092;-62
2021/04/02 00:40:20;;;;;;;12.90;4.60;;;;;;;4.97;65.66;99991.16;5013186;28;20030;-63
2021/04/02 00:42:46;;;;;;;12.15;4.60;;;;;;;5.00;65.51;99983.84;5013076;28;20042;-61
2021/04/02 00:45:12;;;;;;;13.27;4.68;;;;;;;5.04;65.96;99977.13;5011393;28;20052;-61
2021/04/02 00:47:37;;;;;;;10.45;4.90;;;;;;;4.90;67.90;99992.91;5013146;28;20369;-61
2021/04/02 00:50:08;;;;;;;14.07;5.40;;;;;;;4.76;67.98;99985.78;5013112;28;20026;-61
2021/04/02 00:52:33;;;;;;;9.65;4.70;;;;;;;4.87;66.72;99982.69;5013472;28;20096;-61
2021/04/02 00:54:58;;;;;;;9.52;4.95;;;;;;;4.80;66.83;99978.28;5011920;28;20381;-62
2021/04/02 00:57:24;;;;;;;9.20;5.40;;;;;;;4.79;67.47;99977.44;5011530;28;20057;-61
2021/04/02 00:59:49;;;;;;;11.75;4.57;;;;;;;4.70;67.89;99981.25;4995502;28;20518;-62
2021/04/02 01:02:14;;;;;;;11.02;4.80;;;;;;;4.60;67.87;99988.69;5011598;28;20113;-61
2021/04/02 01:04:40;;;;;;;12.98;5.65;;;;;;;4.58;67.78;99983.53;4995557;28;20030;-61
2021/04/02 01:07:05;;;;;;;12.23;5.55;;;;;;;4.62;70.69;99986.63;5012515;28;20380;-61
2021/04/02 01:09:31;;;;;;;10.68;5.57;;;;;;;4.67;67.73;99986.94;5012826;28;20045;-61
2021/04/02 01:11:56;;;;;;;10.15;5.00;;;;;;;4.53;68.26;99983.28;5012837;28;20041;-62
2021/04/02 01:14:22;;;;;;;10.77;5.57;;;;;;;4.62;68.41;99990.13;5011682;28;20028;-62
2021/04/02 01:16:48;;;;;;;11.25;5.07;;;;;;;4.48;68.22;99989.13;5012512;28;20069;-62
2021/04/02 01:19:17;;;;;;;10.77;5.45;;;;;;;4.43;68.50;99986.19;5013075;28;20037;-61
2021/04/02 01:21:49;;;;;;;10.88;5.90;;;;;;;4.37;69.06;99986.94;5012388;28;20041;-62
2021/04/02 01:24:21;;;;;;;10.63;6.18;;;;;;;4.47;69.16;99984.03;5012718;28;20040;-62
2021/04/02 01:26:55;;;;;;;11.48;5.65;;;;;;;4.35;69.12;99975.69;5012286;28;20107;-62
2021/04/02 01:29:43;;;;;;;8.95;5.90;;;;;;;4.32;69.56;99984.03;5011363;28;20067;-62
2021/04/02 01:32:10;;;;;;;9.75;6.05;;;;;;;4.41;68.97;99982.09;5012159;28;20042;-62
2021/04/02 01:34:37;;;;;;;9.02;5.55;;;;;;;4.26;69.34;99990.06;5012798;28;20030;-62
2021/04/02 01:37:07;;;;;;;13.18;6.10;;;;;;;4.33;70.88;99977.69;5012177;28;20049;-62
2021/04/02 01:39:34;;;;;;;11.30;5.93;;;;;;;4.32;69.72;99986.69;5012626;28;20037;-62
2021/04/02 01:41:59;;;;;;;9.65;5.65;;;;;;;4.34;69.46;99974.03;5010846;28;20044;-61
2021/04/02 01:44:25;;;;;;;12.85;6.43;;;;;;;4.20;69.87;99980.19;4994711;28;20030;-61
2021/04/02 01:46:50;;;;;;;13.27;5.63;;;;;;;4.23;71.23;99985.13;5010930;28;20050;-62
2021/04/02 01:49:16;;;;;;;10.48;5.72;;;;;;;4.22;69.31;99983.44;5011373;28;20040;-62
2021/04/02 01:51:41;;;;;;;11.30;6.22;;;;;;;4.16;71.06;99978.88;4994576;28;20104;-62
2021/04/02 01:54:07;;;;;;;9.52;5.95;;;;;;;4.07;70.34;99978.97;5011340;28;20380;-62
2021/04/02 01:56:33;;;;;;;11.00;6.35;;;;;;;4.13;70.31;99977.41;5015087;28;20508;-62
2021/04/02 01:58:58;;;;;;;11.60;6.25;;;;;;;4.15;72.68;99980.72;5015218;28;20380;-62
2021/04/02 02:01:28;;;;;;;10.55;6.10;;;;;;;4.07;70.38;99972.84;4998473;28;20038;-62
2021/04/02 02:03:55;;;;;;;12.30;6.10;;;;;;;3.96;70.94;99970.63;5016217;28;20060;-62
2021/04/02 02:06:23;;;;;;;10.38;6.03;;;;;;;3.88;70.95;99974.19;5014671;28;20073;-62
2021/04/02 02:08:48;;;;;;;10.57;6.53;;;;;;;3.87;71.49;99972.56;4998282;28;20057;-62
2021/04/02 02:11:15;;;;;;;11.32;6.30;;;;;;;3.80;72.26;99974.28;4998152;28;20064;-62
2021/04/02 02:13:42;;;;;;;11.38;6.55;;;;;;;3.70;71.26;99976.38;5016070;28;20033;-61
2021/04/02 02:16:09;;;;;;;14.23;6.60;;;;;;;3.56;71.99;99983.25;5015773;28;20049;-62
2021/04/02 02:18:35;;;;;;;11.93;6.70;;;;;;;3.66;72.40;99975.88;5015928;28;20507;-62
2021/04/02 02:21:00;;;;;;;10.90;6.65;;;;;;;3.68;72.38;99977.34;4994583;28;20066;-62
2021/04/02 02:23:26;;;;;;;12.27;7.22;;;;;;;3.82;73.15;99980.19;4995112;28;20030;-62
2021/04/02 02:25:51;;;;;;;13.07;6.32;;;;;;;3.90;71.35;99980.16;4994828;28;20038;-62
2021/04/02 02:28:16;;;;;;;11.13;6.93;;;;;;;3.88;73.14;99980.31;4996307;28;20061;-62
2021/04/02 02:30:42;;;;;;;12.00;6.82;;;;;;;3.99;74.71;99980.88;5010834;28;20054;-62
2021/04/02 02:33:08;;;;;;;10.35;6.95;;;;;;;3.88;74.49;99968.88;4996143;28;20079;-62
2021/04/02 02:35:33;;;;;;;10.85;6.82;;;;;;;3.65;71.78;99969.75;5010870;28;20046;-62
2021/04/02 02:38:01;;;;;;;14.48;7.07;;;;;;;3.68;72.92;99971.22;4996151;28;20034;-62
2021/04/02 02:40:31;;;;;;;12.50;7.53;;;;;;;3.66;72.62;99979.34;5010335;28;20038;-62
2021/04/02 02:42:56;;;;;;;11.60;7.70;;;;;;;3.62;74.11;99972.78;4996188;28;20080;-62
2021/04/02 02:45:22;;;;;;;9.30;7.07;;;;;;;3.57;73.10;99977.78;4995650;28;20039;-62
2021/04/02 02:47:48;;;;;;;12.43;7.28;;;;;;;3.58;74.53;99973.31;5010859;28;20081;-61
2021/04/02 02:50:15;;;;;;;11.95;7.30;;;;;;;3.53;76.34;99970.38;4995442;28;20033;-62
2021/04/02 02:52:41;;;;;;;12.95;7.70;;;;;;;3.52;73.42;99977.50;5010849;28;20050;-62
2021/04/02 02:55:07;;;;;;;12.52;7.57;;;;;;;3.43;73.85;99975.91;4995344;28;20035;-62
2021/04/02 02:57:32;;;;;;;14.25;7.95;;;;;;;3.41;76.46;99972.59;4995746;28;20480;-61
2021/04/02 02:59:58;;;;;;;13.48;8.23;;;;;;;3.43;76.26;99970.59;4994420;28;20022;-62
2021/04/02 03:02:24;;;;;;;14.50;8.38;;;;;;;3.42;75.35;99979.53;5010234;28;20134;-62
2021/04/02 03:04:49;;;;;;;11.80;7.93;;;;;;;3.35;74.29;99978.63;5010687;28;20366;-62
2021/04/02 03:07:15;;;;;;;11.50;7.43;;;;;;;3.40;75.09;99976.28;4994158;28;20069;-62
2021/04/02 03:09:40;;;;;;;13.15;7.68;;;;;;;3.30;76.11;99973.03;5010395;28;20077;-62
2021/04/02 03:12:06;;;;;;;13.10;7.95;;;;;;;3.26;75.52;99974.38;4995244;28;20089;-62
2021/04/02 03:14:32;;;;;;;16.05;9.27;;;;;;;3.23;76.88;99973.72;4994247;28;20045;-62
2021/04/02 03:16:57;;;;;;;12.65;8.30;;;;;;;3.11;76.41;99967.19;5010104;28;20042;-62
2021/04/02 03:19:23;;;;;;;15.75;9.20;;;;;;;3.15;77.31;99965.03;4994176;28;20455;-61
2021/04/02 03:21:49;;;;;;;14.35;8.95;;;;;;;3.14;77.42;99966.84;5013199;28;20385;-61
2021/04/02 03:24:15;;;;;;;16.60;8.90;;;;;;;3.09;77.70;99971.84;5015068;28;20080;-61
2021/04/02 03:26:42;;;;;;;17.73;9.60;;;;;;;3.03;77.25;99975.19;5013006;28;20096;-61
2021/04/02 03:29:07;;;;;;;19.05;9.57;;;;;;;3.22;77.02;99979.19;5013606;28;20041;-61
2021/04/02 03:31:34;;;;;;;16.95;9.35;;;;;;;3.21;77.45;99972.25;4996853;28;20045;-61
2021/04/02 03:34:00;;;;;;;15.82;10.13;;;;;;;3.19;76.77;99966.31;5014636;28;20029;-61
2021/04/02 03:36:26;;;;;;;16.88;9.77;;;;;;;3.14;77.82;99976.59;5012866;28;20496;-61
2021/04/02 03:38:52;;;;;;;16.48;9.88;;;;;;;3.15;77.42;99976.44;5014016;28;20034;-61
2021/04/02 03:41:28;;;;;;;17.40;9.32;;;;;;;3.04;77.92;99976.84;5013027;28;20071;-61
2021/04/02 03:43:53;;;;;;;15.50;9.13;;;;;;;3.12;77.15;99968.00;5014442;28;20121;-61
2021/04/02 03:46:19;;;;;;;15.32;9.13;;;;;;;3.05;77.07;99967.91;4996446;28;20041;-61
2021/04/02 03:48:44;;;;;;;13.65;8.68;;;;;;;2.96;77.78;99964.47;5012994;28;20108;-61
2021/04/02 03:51:11;;;;;;;17.15;9.57;;;;;;;2.91;78.26;99966.00;5014073;28;20050;-61
2021/04/02 03:53:58;;;;;;;16.33;9.88;;;;;;;2.96;77.72;99967.13;5014465;28;20064;-61
2021/04/02 03:56:28;;;;;;;14.95;10.07;;;;;;;2.80;78.28;99967.22;4996015;28;20053;-61
2021/04/02 03:58:55;;;;;;;16.77;9.90;;;;;;;3.01;77.95;99966.59;5013032;28;20080;-61
2021/04/02 04:01:21;;;;;;;20.65;10.75;;;;;;;2.96;78.10;99968.94;4996105;28;20030;-62
2021/04/02 04:03:47;;;;;;;14.57;10.27;;;;;;;2.86;79.23;99968.34;4996604;28;20428;-61
2021/04/02 04:06:15;;;;;;;17.42;11.10;;;;;;;2.92;79.12;99975.59;4996249;28;20108;-61
2021/04/02 04:08:42;;;;;;;17.98;10.52;;;;;;;2.92;78.82;99970.28;5012542;28;20061;-62
2021/04/02 04:11:07;;;;;;;17.23;10.00;;;;;;;2.90;78.47;99975.78;5012369;28;20416;-62
2021/04/02 04:13:34;;;;;;;18.42;10.50;;;;;;;2.91;78.47;99966.81;4996473;28;20037;-61
2021/04/02 04:16:00;;;;;;;14.82;9.98;;;;;;;2.86;78.42;99973.63;4996058;28;20378;-61
2021/04/02 04:18:25;;;;;;;21.05;11.10;;;;;;;2.88;78.68;99971.66;5012435;28;20088;-61
2021/04/02 04:20:53;;;;;;;17.33;10.75;;;;;;;2.83;78.36;99968.69;5013358;28;20042;-61
2021/04/02 04:23:19;;;;;;;17.80;10.80;;;;;;;2.89;78.75;99973.28;5012522;28;20033;-61
2021/04/02 04:25:44;;;;;;;19.02;11.02;;;;;;;2.93;78.95;99974.59;5011946;28;20034;-62
2021/04/02 04:28:10;;;;;;;20.83;10.65;;;;;;;2.92;79.32;99979.06;4996085;28;20032;-61
2021/04/02 04:30:35;;;;;;;19.17;11.38;;;;;;;2.91;78.90;99982.69;5011949;28;20046;-61
2021/04/02 04:33:01;;;;;;;17.27;10.63;;;;;;;3.03;77.83;99985.78;5012502;28;20491;-61
2021/04/02 04:35:26;;;;;;;17.45;11.50;;;;;;;3.07;77.89;99976.50;5013376;28;20037;-61
2021/04/02 04:37:52;;;;;;;16.35;10.35;;;;;;;3.03;78.26;99977.84;5012414;28;20022;-62
2021/04/02 04:40:19;;;;;;;17.42;11.48;;;;;;;3.00;78.21;99978.19;5011887;28;20472;-62
2021/04/02 04:42:45;;;;;;;18.65;10.35;;;;;;;3.07;78.04;99986.25;5012383;28;20022;-62
2021/04/02 04:45:11;;;;;;;20.27;11.95;;;;;;;3.02;78.18;99984.13;4979059;28;20044;-62
2021/04/02 04:47:37;;;;;;;16.10;11.20;;;;;;;2.95;78.32;99993.78;4995837;28;20504;-62
2021/04/02 04:50:06;;;;;;;20.70;11.52;;;;;;;3.05;77.84;99988.28;5012980;28;20025;-62
2021/04/02 04:52:31;;;;;;;17.77;9.73;;;;;;;3.17;77.84;99990.34;5013359;28;20395;-62
2021/04/02 04:54:57;;;;;;;20.00;11.68;;;;;;;3.27;79.99;99995.41;4995723;28;20033;-62
2021/04/02 04:57:22;;;;;;;17.83;11.85;;;;;;;3.26;77.72;99991.09;5012604;28;20451;-62
2021/04/02 04:59:49;;;;;;;17.73;11.40;;;;;;;3.30;78.38;99991.59;5011932;28;20404;-62
2021/04/02 05:02:15;;;;;;;21.50;12.48;;;;;;;3.33;77.68;99996.53;4995318;28;20144;-62
2021/04/02 05:04:40;;;;;;;20.38;11.27;;;;;;;3.40;77.54;99989.53;5011778;28;20042;-62
2021/04/02 05:07:06;;;;;;;18.25;11.90;;;;;;;3.35;78.04;99986.59;4995003;28;20038;-62
2021/04/02 05:09:31;;;;;;;18.33;11.43;;;;;;;3.50;78.70;99992.75;5012866;28;20041;-62
2021/04/02 05:11:58;;;;;;;18.75;11.30;;;;;;;3.58;77.24;99991.88;5012746;28;20053;-62
2021/04/02 05:14:23;;;;;;;23.10;12.25;;;;;;;3.64;78.55;99988.47;5011644;28;20052;-62
2021/04/02 05:16:49;;;;;;;19.77;12.20;;;;;;;3.66;77.97;99992.59;5011259;28;20400;-62
2021/04/02 05:19:18;;;;;;;17.85;12.18;;;;;;;3.58;77.83;99994.50;5011678;28;20100;-62
2021/04/02 05:21:44;;;;;;;17.48;11.18;;;;;;;3.65;77.19;99998.91;4994652;28;20038;-62
2021/04/02 05:24:13;;;;;;;19.25;12.02;;;;;;;3.74;77.15;99999.66;5012832;28;20041;-62
2021/04/02 05:26:39;;;;;;;20.50;13.40;;;;;;;3.69;77.15;99996.72;5012459;28;20058;-62
2021/04/02 05:29:04;;;;;;;22.38;12.82;;;;;;;3.78;76.86;99994.84;5012400;28;20085;-62
2021/04/02 05:31:30;;;;;;;19.20;12.48;;;;;;;3.65;78.69;99998.91;5012286;28;20038;-62
2021/04/02 05:33:55;;;;;;;20.00;12.60;;;;;;;3.72;78.33;100004.34;5012337;28;20036;-62
2021/04/02 05:36:21;;;;;;;22.63;13.20;;;;;;;3.83;77.85;100014.50;5012389;28;20045;-62
2021/04/02 05:38:46;;;;;;;21.25;13.27;;;;;;;3.82;76.80;100012.88;5011432;28;20057;-62
2021/04/02 05:41:13;;;;;;;20.70;12.60;;;;;;;3.80;76.89;100012.22;5012172;28;20401;-62
2021/04/02 05:43:48;;;;;;;21.33;12.63;;;;;;;3.89;76.35;100012.97;5012748;28;20161;-62
2021/04/02 05:46:14;;;;;;;24.73;13.27;;;;;;;3.91;76.65;100010.97;5011064;28;20096;-62
2021/04/02 05:48:41;;;;;;;21.13;12.60;;;;;;;4.06;76.71;100008.31;5012411;28;20500;-62
2021/04/02 05:51:06;;;;;;;20.45;12.52;;;;;;;3.93;76.41;100008.13;5010710;28;20096;-62
2021/04/02 05:53:33;;;;;;;21.67;12.68;;;;;;;4.01;76.13;100003.56;5011193;28;20021;-62
2021/04/02 05:56:00;;;;;;;20.65;13.23;;;;;;;4.23;76.70;100012.47;4994580;28;20121;-62
2021/04/02 05:58:25;;;;;;;16.73;11.27;;;;;;;4.20;75.52;100014.69;5011504;28;20040;-62
2021/04/02 06:00:51;;;;;;;18.17;12.93;;;;;;;4.19;75.65;100018.31;4978356;28;20042;-62
2021/04/02 06:03:17;;;;;;;18.20;11.85;;;;;;;4.35;75.52;100012.03;4994936;28;20461;-62
2021/04/02 06:05:43;;;;;;;19.08;11.77;;;;;;;4.26;75.08;100019.25;5012138;28;20038;-62
2021/04/02 06:08:09;;;;;;;21.08;12.25;;;;;;;4.28;75.00;100019.88;5011150;28;20539;-62
2021/04/02 06:10:35;;;;;;;21.35;12.68;;;;;;;4.25;75.83;100023.72;5010650;28;20072;-62
2021/04/02 06:13:00;;;;;;;18.10;12.93;;;;;;;4.13;75.26;100027.81;5012363;28;20404;-62
2021/04/02 06:15:26;;;;;;;22.60;12.82;;;;;;;4.14;75.22;100016.19;5012111;28;20485;-62
2021/04/02 06:18:12;;;;;;;20.40;12.95;;;;;;;4.17;75.18;100021.16;5012606;28;20092;-61
2021/04/02 06:20:47;;;;;;;16.13;11.18;;;;;;;4.18;75.64;100019.34;5012001;28;20054;-61
2021/04/02 06:23:14;;;;;;;20.30;11.13;;;;;;;4.38;75.72;100023.09;5012599;28;20056;-61
2021/04/02 06:25:49;;;;;;;17.77;11.30;;;;;;;4.53;73.64;100020.44;5012067;28;20070;-61
2021/04/02 06:28:34;;;;;;;17.02;11.27;;;;;;;4.38;74.60;100028.41;5012284;28;20065;-61
2021/04/02 06:31:01;;;;;;;18.70;11.88;;;;;;;4.45;74.05;100024.00;5011882;28;20124;-61
2021/04/02 06:33:46;;;;;;;18.25;12.07;;;;;;;4.39;74.40;100032.69;5012192;28;20121;-61
2021/04/02 06:36:18;;;;;;;19.58;11.70;;;;;;;4.50;73.89;100031.44;5010593;28;20091;-61
2021/04/02 06:38:48;;;;;;;17.77;12.40;;;;;;;4.48;73.72;100033.44;5012327;28;20042;-61
2021/04/02 06:41:13;;;;;;;20.08;12.40;;;;;;;4.40;74.48;100037.00;5010658;28;20034;-61
2021/04/02 06:43:41;;;;;;;20.73;12.20;;;;;;;4.37;74.53;100042.69;5014236;28;20025;-61
2021/04/02 06:46:10;;;;;;;21.48;11.88;;;;;;;4.50;73.29;100045.53;5015310;28;20038;-61
2021/04/02 06:48:36;;;;;;;16.58;10.82;;;;;;;4.51;73.41;100043.69;5015727;28;20534;-62
2021/04/02 06:51:01;;;;;;;16.27;11.57;;;;;;;4.65;73.39;100050.84;5015196;28;20125;-62
2021/04/02 06:53:27;;;;;;;19.08;11.88;;;;;;;4.64;72.89;100051.84;4997873;28;20433;-62
2021/04/02 06:55:52;;;;;;;18.58;11.63;;;;;;;4.69;72.69;100048.63;5013719;28;20046;-62
2021/04/02 06:58:18;;;;;;;19.13;12.35;;;;;;;4.65;73.15;100050.84;5014085;28;20052;-62
2021/04/02 07:00:43;;;;;;;19.33;12.65;;;;;;;4.58;73.48;100049.91;4997314;28;20073;-62
2021/04/02 07:03:09;;;;;;;20.95;14.35;;;;;;;4.69;73.21;100051.28;5014080;28;20030;-62
2021/04/02 07:05:34;;;;;;;20.80;13.68;;;;;;;4.63;73.33;100052.03;5014977;28;20042;-62
2021/04/02 07:08:06;;;;;;;28.60;16.00;;;;;;;4.71;72.88;100051.91;5014044;28;20438;-63
2021/04/02 07:10:37;;;;;;;26.65;16.58;;;;;;;4.86;73.05;100051.91;5014583;28;20122;-62
2021/04/02 07:13:03;;;;;;;;;;;;;;;4.77;72.93;100048.53;5015737;28;20030;-62
2021/04/02 07:15:31;;;;;;;20.27;11.02;;;;;;;4.77;72.64;100048.53;5014750;28;20004;-62
2021/04/02 07:17:56;;;;;;;15.90;10.25;;;;;;;4.96;72.39;100061.22;4997830;28;20080;-62
2021/04/02 07:20:21;;;;;;;18.80;12.38;;;;;;;4.92;71.59;100054.66;5013368;28;20042;-62
2021/04/02 07:22:47;;;;;;;16.73;11.32;;;;;;;4.84;71.91;100054.78;5013865;28;20447;-62
2021/04/02 07:25:13;;;;;;;17.40;10.20;;;;;;;4.94;71.14;100060.63;4997200;28;20495;-62
2021/04/02 07:27:38;;;;;;;15.07;10.52;;;;;;;4.99;71.19;100057.38;5013234;28;20037;-62
2021/04/02 07:30:05;;;;;;;14.80;10.85;;;;;;;4.91;71.93;100055.66;5012923;28;20539;-63
2021/04/02 07:32:31;;;;;;;15.00;10.38;;;;;;;5.03;70.59;100063.16;5014964;28;20022;-63
2021/04/02 07:34:56;;;;;;;16.00;10.00;;;;;;;5.02;71.30;100056.19;5010507;28;20033;-62
2021/04/02 07:37:22;;;;;;;12.13;9.30;;;;;;;4.96;69.49;100057.75;4993422;28;20042;-62
2021/04/02 07:39:48;;;;;;;13.00;9.38;;;;;;;5.06;70.02;100066.25;4995463;28;20465;-63
2021/04/02 07:42:14;;;;;;;20.35;11.10;;;;;;;5.11;70.17;100061.22;5009518;28;20160;-62
2021/04/02 07:44:44;;;;;;;17.83;11.13;;;;;;;5.12;69.83;100064.72;4994920;28;20026;-62
2021/04/02 07:47:11;;;;;;;15.00;9.20;;;;;;;5.19;69.69;100070.91;4994425;28;20049;-62
2021/04/02 07:49:53;;;;;;;13.85;9.38;;;;;;;5.13;69.96;100067.16;4994765;28;20516;-62
2021/04/02 07:52:37;;;;;;;14.90;9.27;;;;;;;5.21;68.88;100063.56;4994120;28;20042;-62
2021/04/02 07:55:12;;;;;;;16.67;11.02;;;;;;;5.29;68.86;100063.47;5009427;28;20385;-63
2021/04/02 07:57:53;;;;;;;14.50;8.20;;;;;;;5.45;67.82;100067.72;4993405;28;20034;-62
2021/04/02 08:00:21;;;;;;;13.77;8.27;;;;;;;5.48;66.98;100066.53;4992991;28;20124;-62
2021/04/02 08:02:47;;;;;;;10.68;7.15;;;;;;;5.25;67.23;100067.50;4994435;28;20029;-62
2021/04/02 08:05:15;;;;;;;13.05;7.53;;;;;;;5.38;66.99;100069.50;4992795;28;20023;-63
2021/04/02 08:07:42;;;;;;;9.95;7.43;;;;;;;5.46;67.22;100073.88;4994623;28;20112;-62
2021/04/02 08:10:11;;;;;;;13.32;8.15;;;;;;;5.54;66.52;100071.94;4993748;28;20046;-63
2021/04/02 08:12:36;;;;;;;12.35;7.72;;;;;;;5.48;66.85;100069.19;4994491;28;20030;-62
2021/04/02 08:15:09;;;;;;;13.60;8.02;;;;;;;5.48;66.76;100077.16;4992698;28;20477;-62
2021/04/02 08:17:36;;;;;;;10.98;6.90;;;;;;;5.48;65.68;100080.66;5009572;28;20384;-62
2021/04/02 08:20:03;;;;;;;10.25;6.75;;;;;;;5.49;66.15;100086.78;4995448;28;20022;-62
2021/04/02 08:22:28;;;;;;;10.05;7.57;;;;;;;5.67;65.18;100081.88;5013783;28;20562;-62
2021/04/02 08:24:53;;;;;;;10.57;6.00;;;;;;;5.65;64.80;100083.06;4996202;28;20084;-62
2021/04/02 08:27:19;;;;;;;8.82;6.60;;;;;;;5.64;65.61;100090.22;4995657;28;20041;-62
2021/04/02 08:29:45;;;;;;;10.52;6.53;;;;;;;5.66;64.07;100090.03;5013766;28;20026;-62
2021/04/02 08:32:12;;;;;;;9.30;6.95;;;;;;;5.77;64.48;100081.56;5013275;28;20345;-62
2021/04/02 08:34:38;;;;;;;10.32;6.57;;;;;;;5.80;63.21;100092.63;5012294;28;20061;-62
2021/04/02 08:37:05;;;;;;;8.80;5.80;;;;;;;5.88;62.26;100082.88;5012956;28;20045;-62
2021/04/02 08:39:31;;;;;;;7.63;5.38;;;;;;;5.97;62.42;100089.75;5013629;28;20081;-62
2021/04/02 08:42:02;;;;;;;7.93;5.57;;;;;;;5.85;63.82;100097.38;5013112;28;20432;-62
2021/04/02 08:44:31;;;;;;;7.13;5.72;;;;;;;5.97;62.13;100106.53;5013427;28;20063;-62
2021/04/02 08:46:58;;;;;;;9.63;6.35;;;;;;;5.89;63.07;100101.31;5012980;28;20374;-62
2021/04/02 08:49:23;;;;;;;8.25;5.47;;;;;;;5.81;62.51;100109.41;5013376;28;20088;-62
2021/04/02 08:51:49;;;;;;;7.85;5.90;;;;;;;5.91;62.38;100103.78;5012914;28;20033;-62
2021/04/02 08:54:19;;;;;;;11.80;5.93;;;;;;;5.93;62.74;100104.41;5013421;28;20034;-62
2021/04/02 08:56:44;;;;;;;8.95;6.00;;;;;;;5.99;65.03;100101.00;5013182;28;20045;-62
2021/04/02 08:59:10;;;;;;;8.90;5.65;;;;;;;6.15;61.39;100095.44;5013552;28;20050;-62
2021/04/02 09:02:01;;;;;;;9.25;5.07;;;;;;;6.39;61.71;100096.84;5012819;28;20092;-62
2021/04/02 09:04:28;;;;;;;7.93;4.97;;;;;;;6.29;61.15;100100.84;5007480;28;20041;-62
2021/04/02 09:06:53;;;;;;;7.20;4.93;;;;;;;6.54;60.40;100099.41;5012612;28;20194;-62
2021/04/02 09:09:20;;;;;;;6.25;4.88;;;;;;;6.65;58.42;100095.38;5011727;28;20057;-62
2021/04/02 09:11:47;;;;;;;8.27;5.07;;;;;;;6.77;58.73;100103.66;5011336;28;20038;-63
2021/04/02 09:14:13;;;;;;;8.65;5.57;;;;;;;6.01;58.62;100104.31;5013191;28;20029;-62
2021/04/02 09:16:39;;;;;;;9.30;5.45;;;;;;;6.59;59.18;100097.00;5012669;28;20037;-63
2021/04/02 09:19:05;;;;;;;10.65;5.07;;;;;;;6.74;58.19;100098.69;5011736;28;20464;-62
2021/04/02 09:21:31;;;;;;;7.15;4.75;;;;;;;6.83;57.23;100102.84;5012532;28;20034;-62
2021/04/02 09:23:56;;;;;;;6.90;4.70;;;;;;;6.70;57.46;100099.09;5011738;28;20441;-62
2021/04/02 09:26:22;;;;;;;8.50;4.72;;;;;;;7.03;56.56;100103.78;5012668;28;20037;-63
2021/04/02 09:28:48;;;;;;;6.93;4.65;;;;;;;7.08;56.02;100106.69;5012842;28;20033;-62
2021/04/02 09:31:24;;;;;;;5.82;4.65;;;;;;;6.39;57.28;100099.53;5012628;28;20219;-62
2021/04/02 09:33:54;;;;;;;7.85;5.10;;;;;;;6.20;57.69;100093.00;5011672;28;20483;-63
2021/04/02 09:36:20;;;;;;;9.23;5.85;;;;;;;6.21;58.57;100099.97;5010548;28;20121;-62
2021/04/02 09:38:46;;;;;;;9.18;6.55;;;;;;;6.37;58.22;100092.75;5012649;28;20110;-62
2021/04/02 09:41:12;;;;;;;7.70;5.38;;;;;;;6.36;57.77;100093.75;5010939;28;20058;-63
2021/04/02 09:43:40;;;;;;;7.00;5.22;;;;;;;6.42;57.23;100091.13;5012861;28;20026;-63
2021/04/02 09:46:06;;;;;;;10.60;6.68;;;;;;;6.65;57.33;100088.22;5012446;28;20077;-63
2021/04/02 09:48:36;;;;;;;7.93;5.38;;;;;;;6.47;56.66;100098.53;5011276;28;20030;-61
2021/04/02 09:51:02;;;;;;;8.02;5.70;;;;;;;6.64;56.61;100083.06;5012442;28;20042;-61
2021/04/02 09:53:27;;;;;;;6.70;5.18;;;;;;;6.88;57.30;100079.09;5011221;28;20029;-63
2021/04/02 09:55:53;;;;;;;7.82;5.22;;;;;;;7.39;56.41;100075.19;5010734;28;20091;-61
2021/04/02 09:58:18;;;;;;;9.38;5.78;;;;;;;7.33;56.30;100082.16;5012639;28;20029;-63
2021/04/02 10:00:44;;;;;;;8.15;5.38;;;;;;;7.43;58.03;100079.94;5011916;28;20053;-61
2021/04/02 10:03:13;;;;;;;7.07;5.22;;;;;;;7.47;56.00;100073.19;5012479;28;20037;-61
2021/04/02 10:05:38;;;;;;;7.57;5.18;;;;;;;7.30;56.50;100074.56;5010708;28;20161;-61
2021/04/02 10:08:04;;;;;;;7.43;5.47;;;;;;;7.16;56.83;100076.34;5012465;28;20420;-63
2021/04/02 10:10:30;;;;;;;8.00;5.95;;;;;;;6.91;56.89;100084.03;5011783;28;20072;-61
2021/04/02 10:12:55;;;;;;;8.02;6.10;;;;;;;7.54;56.29;100074.03;5012393;28;20029;-61
2021/04/02 10:15:21;;;;;;;8.43;5.32;;;;;;;7.92;54.68;100070.78;5010979;28;20046;-61
2021/04/02 10:17:46;;;;;;;8.02;5.57;;;;;;;8.22;54.32;100070.38;5016142;28;20025;-61
2021/04/02 10:20:12;;;;;;;7.68;5.60;;;;;;;8.20;53.85;100067.09;5015513;28;20022;-62
2021/04/02 10:22:37;;;;;;;8.55;5.35;;;;;;;7.91;54.09;100065.66;5015842;28;20025;-61
2021/04/02 10:25:03;;;;;;;10.38;5.97;;;;;;;8.30;53.78;100072.03;5014535;28;20026;-61
2021/04/02 10:27:29;;;;;;;8.65;5.70;;;;;;;8.09;53.59;100076.56;5015796;28;20060;-61
2021/04/02 10:29:54;;;;;;;8.82;5.80;;;;;;;8.22;52.92;100070.38;5016015;28;20030;-62
2021/04/02 10:32:20;;;;;;;9.50;5.50;;;;;;;8.66;51.94;100071.56;5014135;28;20029;-62
2021/04/02 10:34:45;;;;;;;10.57;5.32;;;;;;;8.48;52.40;100063.41;5015811;28;20118;-62
2021/04/02 10:37:11;;;;;;;10.55;6.13;;;;;;;9.19;50.51;100060.72;5014174;28;20041;-62
2021/04/02 10:39:37;;;;;;;6.88;5.32;;;;;;;8.64;50.60;100065.63;5015940;28;20018;-62
2021/04/02 10:42:02;;;;;;;9.38;5.85;;;;;;;8.47;51.79;100062.59;5013955;28;20511;-61
2021/04/02 10:44:28;;;;;;;8.80;5.28;;;;;;;8.90;50.89;100062.06;5015805;28;20026;-62
2021/04/02 10:46:54;;;;;;;6.95;5.35;;;;;;;9.03;50.33;100062.00;5015225;28;20547;-62
2021/04/02 10:49:19;;;;;;;7.93;4.97;;;;;;;8.99;49.90;100059.97;5015572;28;20033;-62
2021/04/02 10:51:44;;;;;;;7.45;5.07;;;;;;;8.75;51.14;100059.63;5015163;28;20034;-62
2021/04/02 10:54:10;;;;;;;9.48;5.45;;;;;;;8.80;49.75;100061.69;5015410;28;20018;-62
2021/04/02 10:56:35;;;;;;;7.15;5.25;;;;;;;9.42;48.64;100057.50;5013845;28;20511;-62
2021/04/02 10:59:01;;;;;;;9.18;5.72;;;;;;;9.12;49.96;100054.56;5015098;28;20033;-62
2021/04/02 11:01:26;;;;;;;7.35;5.40;;;;;;;8.76;49.98;100053.28;5014961;28;20496;-62
2021/04/02 11:03:52;;;;;;;6.53;5.13;;;;;;;8.74;50.45;100062.53;5015144;28;20018;-62
2021/04/02 11:06:17;;;;;;;8.43;5.13;;;;;;;9.73;50.33;100053.19;5014697;28;20427;-62
2021/04/02 11:08:43;;;;;;;8.82;5.65;;;;;;;10.15;46.65;100054.28;5014987;28;20490;-62
2021/04/02 11:11:08;;;;;;;7.38;5.63;;;;;;;9.76;46.90;100057.28;5014783;28;20050;-62
2021/04/02 11:13:34;;;;;;;8.38;5.47;;;;;;;9.85;46.80;100050.63;5015128;28;20037;-62
2021/04/02 11:15:59;;;;;;;9.50;6.95;;;;;;;8.92;48.04;100045.81;5013044;28;20046;-62
2021/04/02 11:18:24;;;;;;;9.75;6.63;;;;;;;9.52;47.65;100050.88;5014938;28;20080;-62
2021/04/02 11:20:50;;;;;;;9.25;5.90;;;;;;;10.17;44.36;100061.31;5014291;28;20029;-62
2021/04/02 11:23:17;;;;;;;7.20;5.65;;;;;;;10.97;44.25;100058.66;5015114;28;20496;-62
2021/04/02 11:25:46;;;;;;;7.18;5.85;;;;;;;11.37;42.95;100050.09;5014523;28;20038;-62
2021/04/02 11:28:12;;;;;;;19.25;10.57;;;;;;;11.06;43.78;100045.75;5012631;28;20056;-62